createdAt,value
2022-12-15T00:00:26.556Z,1003.6
2022-12-15T00:02:26.660Z,1003.7
2022-12-15T00:04:26.623Z,1003.7
2022-12-15T00:05:26.481Z,1003.7
2022-12-15T00:06:26.550Z,1003.6
2022-12-15T00:07:26.478Z,1003.7
2022-12-15T00:10:26.497Z,1003.8
2022-12-15T00:11:26.515Z,1003.7
2022-12-15T00:12:26.477Z,1003.7
2022-12-15T00:13:26.737Z,1003.7
2022-12-15T00:14:26.480Z,1003.8
2022-12-15T00:15:26.477Z,1003.7
2022-12-15T00:18:26.481Z,1003.8
2022-12-15T00:19:26.475Z,1003.8
2022-12-15T00:20:26.488Z,1003.8
2022-12-15T00:21:26.489Z,1003.7
2022-12-15T00:23:26.663Z,1003.7
2022-12-15T00:25:26.481Z,1003.7
2022-12-15T00:26:26.483Z,1003.8
2022-12-15T00:27:26.491Z,1003.7
2022-12-15T00:30:26.524Z,1003.8
2022-12-15T00:31:26.555Z,1003.8
2022-12-15T00:32:26.507Z,1003.8
2022-12-15T00:33:26.491Z,1003.8
2022-12-15T00:34:26.484Z,1003.8
2022-12-15T00:35:26.477Z,1003.8
2022-12-15T00:38:26.475Z,1003.8
2022-12-15T00:39:26.481Z,1003.8
2022-12-15T00:40:26.477Z,1003.7
2022-12-15T00:43:24.144Z,1003.7
2022-12-15T00:44:24.170Z,1003.7
2022-12-15T00:45:24.860Z,1003.7
2022-12-15T00:46:24.227Z,1003.7
2022-12-15T00:48:24.781Z,1003.7
2022-12-15T00:50:24.150Z,1003.8
2022-12-15T00:51:24.585Z,1003.9
2022-12-15T00:52:24.142Z,1003.9
2022-12-15T00:53:24.568Z,1003.9
2022-12-15T00:54:24.796Z,1003.9
2022-12-15T00:56:24.152Z,1003.8
2022-12-15T00:57:24.146Z,1003.9
2022-12-15T00:58:24.494Z,1003.8
2022-12-15T00:59:24.654Z,1003.9
2022-12-15T01:00:24.836Z,1003.9
2022-12-15T01:03:24.357Z,1003.8
2022-12-15T01:04:24.809Z,1003.8
2022-12-15T01:05:24.162Z,1003.8
2022-12-15T01:06:24.157Z,1003.8
2022-12-15T01:07:24.138Z,1003.8
2022-12-15T01:09:24.142Z,1003.8
2022-12-15T01:11:24.847Z,1003.8
2022-12-15T01:12:24.800Z,1003.8
2022-12-15T01:13:24.153Z,1003.8
2022-12-15T01:14:24.214Z,1003.8
2022-12-15T01:15:24.852Z,1003.8
2022-12-15T01:17:24.143Z,1003.8
2022-12-15T01:18:24.147Z,1003.8
2022-12-15T01:20:24.135Z,1003.9
2022-12-15T01:21:25.439Z,1003.9
2022-12-15T01:22:24.394Z,1003.9
2022-12-15T01:23:24.824Z,1003.9
2022-12-15T01:24:24.508Z,1003.9
2022-12-15T01:25:24.453Z,1003.9
2022-12-15T01:26:24.146Z,1003.9
2022-12-15T01:27:24.754Z,1003.9
2022-12-15T01:28:24.319Z,1003.9
2022-12-15T01:30:24.138Z,1003.9
2022-12-15T01:31:24.220Z,1003.8
2022-12-15T01:32:24.356Z,1003.9
2022-12-15T01:33:24.141Z,1003.9
2022-12-15T01:35:24.721Z,1003.9
2022-12-15T01:38:24.145Z,1003.9
2022-12-15T01:39:24.140Z,1004
2022-12-15T01:40:27.681Z,1004
2022-12-15T01:41:27.698Z,1004
2022-12-15T01:43:24.160Z,1004
2022-12-15T01:44:24.926Z,1004.1
2022-12-15T01:45:24.133Z,1004
2022-12-15T01:46:24.181Z,1004
2022-12-15T01:47:24.634Z,1004.1
2022-12-15T01:48:24.135Z,1004.1
2022-12-15T01:49:24.762Z,1004.1
2022-12-15T01:50:24.177Z,1004.1
2022-12-15T01:51:24.790Z,1004.1
2022-12-15T01:52:24.139Z,1004.1
2022-12-15T01:54:24.136Z,1004.2
2022-12-15T01:56:24.136Z,1004.2
2022-12-15T01:57:24.140Z,1004.2
2022-12-15T01:58:24.140Z,1004.2
2022-12-15T01:59:24.471Z,1004.2
2022-12-15T02:00:24.187Z,1004.2
2022-12-15T02:01:24.665Z,1004.1
2022-12-15T02:04:24.150Z,1004.1
2022-12-15T02:06:24.127Z,1004.2
2022-12-15T02:07:24.973Z,1004.2
2022-12-15T02:08:24.522Z,1004.2
2022-12-15T02:09:24.811Z,1004.2
2022-12-15T02:10:24.135Z,1004.3
2022-12-15T02:11:24.123Z,1004.3
2022-12-15T02:12:24.143Z,1004.3
2022-12-15T02:13:24.794Z,1004.3
2022-12-15T02:15:24.529Z,1004.3
2022-12-15T02:17:24.864Z,1004.4
2022-12-15T02:18:24.546Z,1004.4
2022-12-15T02:19:24.862Z,1004.3
2022-12-15T02:20:24.132Z,1004.3
2022-12-15T02:21:24.135Z,1004.3
2022-12-15T02:22:24.143Z,1004.3
2022-12-15T02:24:24.827Z,1004.4
2022-12-15T02:25:24.598Z,1004.4
2022-12-15T02:26:24.135Z,1004.4
2022-12-15T02:28:24.469Z,1004.4
2022-12-15T02:29:24.154Z,1004.4
2022-12-15T02:30:24.677Z,1004.4
2022-12-15T02:31:24.174Z,1004.4
2022-12-15T02:32:24.680Z,1004.4
2022-12-15T02:33:24.137Z,1004.4
2022-12-15T02:34:24.130Z,1004.4
2022-12-15T02:36:24.172Z,1004.5
2022-12-15T02:37:24.768Z,1004.5
2022-12-15T02:38:24.894Z,1004.5
2022-12-15T02:39:24.700Z,1004.5
2022-12-15T02:40:24.138Z,1004.5
2022-12-15T02:41:24.131Z,1004.5
2022-12-15T02:42:24.834Z,1004.5
2022-12-15T02:44:24.437Z,1004.6
2022-12-15T02:45:23.099Z,1004.6
2022-12-15T02:49:24.393Z,1004.6
2022-12-15T02:50:25.048Z,1004.6
2022-12-15T02:51:24.823Z,1004.6
2022-12-15T02:52:24.148Z,1004.6
2022-12-15T02:53:24.184Z,1004.5
2022-12-15T02:54:24.135Z,1004.5
2022-12-15T02:55:24.668Z,1004.5
2022-12-15T02:57:25.037Z,1004.6
2022-12-15T02:58:24.131Z,1004.6
2022-12-15T02:59:24.141Z,1004.6
2022-12-15T03:00:24.142Z,1004.6
2022-12-15T03:02:24.797Z,1004.6
2022-12-15T03:03:24.170Z,1004.6
2022-12-15T03:05:24.134Z,1004.7
2022-12-15T03:06:24.999Z,1004.6
2022-12-15T03:07:23.046Z,1004.7
2022-12-15T03:08:24.137Z,1004.7
2022-12-15T03:10:24.772Z,1004.7
2022-12-15T03:11:24.144Z,1004.7
2022-12-15T03:12:24.141Z,1004.7
2022-12-15T03:13:24.753Z,1004.7
2022-12-15T03:15:24.136Z,1004.7
2022-12-15T03:16:24.209Z,1004.7
2022-12-15T03:18:24.466Z,1004.8
2022-12-15T03:19:24.612Z,1004.8
2022-12-15T03:20:24.133Z,1004.8
2022-12-15T03:21:24.186Z,1004.8
2022-12-15T03:23:24.594Z,1004.8
2022-12-15T03:24:24.435Z,1004.8
2022-12-15T03:25:24.968Z,1004.8
2022-12-15T03:27:24.608Z,1004.8
2022-12-15T03:29:24.765Z,1004.8
2022-12-15T03:30:24.140Z,1004.8
2022-12-15T03:31:24.965Z,1004.8
2022-12-15T03:32:25.017Z,1004.8
2022-12-15T03:33:24.666Z,1004.8
2022-12-15T03:34:23.779Z,1004.8
2022-12-15T03:37:25.046Z,1004.8
2022-12-15T03:40:23.012Z,1004.8
2022-12-15T03:41:24.336Z,1004.7
2022-12-15T03:42:24.162Z,1004.8
2022-12-15T03:44:24.145Z,1004.8
2022-12-15T03:45:24.754Z,1004.8
2022-12-15T03:46:24.514Z,1004.9
2022-12-15T03:47:24.165Z,1004.8
2022-12-15T03:48:24.653Z,1004.8
2022-12-15T03:50:24.910Z,1004.8
2022-12-15T03:52:24.532Z,1004.8
2022-12-15T03:53:24.651Z,1004.8
2022-12-15T03:54:24.188Z,1004.9
2022-12-15T03:55:24.387Z,1004.9
2022-12-15T03:56:24.143Z,1004.9
2022-12-15T03:58:24.530Z,1004.9
2022-12-15T03:59:24.159Z,1004.9
2022-12-15T04:00:23.030Z,1005
2022-12-15T04:01:24.827Z,1004.9
2022-12-15T04:02:24.432Z,1004.9
2022-12-15T04:03:24.872Z,1004.9
2022-12-15T04:04:24.650Z,1004.9
2022-12-15T04:06:24.586Z,1004.9
2022-12-15T04:08:24.455Z,1005
2022-12-15T04:09:24.806Z,1004.9
2022-12-15T04:11:23.017Z,1005
2022-12-15T04:12:23.024Z,1005
2022-12-15T04:13:24.156Z,1004.9
2022-12-15T04:14:24.597Z,1005
2022-12-15T04:16:24.250Z,1005
2022-12-15T04:17:24.515Z,1005
2022-12-15T04:19:24.147Z,1004.9
2022-12-15T04:20:24.184Z,1004.9
2022-12-15T04:21:24.496Z,1004.9
2022-12-15T04:23:24.811Z,1004.9
2022-12-15T04:24:24.672Z,1004.9
2022-12-15T04:25:24.639Z,1004.9
2022-12-15T04:26:24.562Z,1005
2022-12-15T04:27:24.696Z,1005
2022-12-15T04:31:24.335Z,1005
2022-12-15T04:32:24.958Z,1005
2022-12-15T04:33:27.648Z,1005
2022-12-15T04:34:24.376Z,1005
2022-12-15T04:35:24.134Z,1005
2022-12-15T04:38:24.263Z,1005.1
2022-12-15T04:39:24.160Z,1005.1
2022-12-15T04:40:24.783Z,1005
2022-12-15T04:41:24.144Z,1005
2022-12-15T04:42:24.142Z,1005
2022-12-15T04:43:24.154Z,1005
2022-12-15T04:44:24.258Z,1005.1
2022-12-15T04:45:25.088Z,1005.1
2022-12-15T04:46:24.214Z,1005
2022-12-15T04:47:24.139Z,1005.1
2022-12-15T04:48:24.434Z,1005.1
2022-12-15T04:51:24.373Z,1005.1
2022-12-15T04:52:24.132Z,1005.1
2022-12-15T04:53:24.143Z,1005.2
2022-12-15T04:56:24.173Z,1005.2
2022-12-15T04:59:24.139Z,1005.2
2022-12-15T05:01:24.327Z,1005.2
2022-12-15T05:02:24.998Z,1005.2
2022-12-15T05:03:24.532Z,1005.1
2022-12-15T05:04:24.257Z,1005.1
2022-12-15T05:05:24.960Z,1005.1
2022-12-15T05:06:24.818Z,1005.1
2022-12-15T05:12:24.655Z,1005.2
2022-12-15T05:13:24.596Z,1005.2
2022-12-15T05:14:24.137Z,1005.2
2022-12-15T05:15:24.275Z,1005.2
2022-12-15T05:16:24.268Z,1005.2
2022-12-15T05:17:24.591Z,1005.2
2022-12-15T05:20:24.716Z,1005.2
2022-12-15T05:21:24.567Z,1005.3
2022-12-15T05:22:24.153Z,1005.3
2022-12-15T05:23:24.649Z,1005.3
2022-12-15T05:24:24.554Z,1005.3
2022-12-15T05:25:24.295Z,1005.3
2022-12-15T05:26:24.151Z,1005.4
2022-12-15T05:27:24.182Z,1005.3
2022-12-15T05:28:24.278Z,1005.3
2022-12-15T05:32:24.547Z,1005.3
2022-12-15T05:33:24.138Z,1005.3
2022-12-15T05:34:24.157Z,1005.3
2022-12-15T05:35:24.667Z,1005.3
2022-12-15T05:36:24.708Z,1005.3
2022-12-15T05:37:24.589Z,1005.4
2022-12-15T05:40:23.012Z,1005.4
2022-12-15T05:41:24.217Z,1005.4
2022-12-15T05:42:24.161Z,1005.4
2022-12-15T05:44:24.476Z,1005.4
2022-12-15T05:45:24.484Z,1005.5
2022-12-15T05:46:24.214Z,1005.5
2022-12-15T05:47:24.139Z,1005.5
2022-12-15T05:48:24.148Z,1005.5
2022-12-15T05:49:24.205Z,1005.5
2022-12-15T05:50:24.152Z,1005.6
2022-12-15T05:53:24.403Z,1005.6
2022-12-15T05:54:24.720Z,1005.6
2022-12-15T05:55:24.158Z,1005.6
2022-12-15T05:56:24.154Z,1005.6
2022-12-15T05:57:24.161Z,1005.6
2022-12-15T05:58:24.439Z,1005.7
2022-12-15T05:59:24.137Z,1005.7
2022-12-15T06:01:24.539Z,1005.7
2022-12-15T06:03:23.015Z,1005.7
2022-12-15T06:05:24.376Z,1005.7
2022-12-15T06:06:24.911Z,1005.7
2022-12-15T06:07:24.716Z,1005.8
2022-12-15T06:08:24.152Z,1005.8
2022-12-15T06:10:24.145Z,1005.9
2022-12-15T06:11:24.135Z,1005.9
2022-12-15T06:13:24.144Z,1005.9
2022-12-15T06:15:24.545Z,1005.8
2022-12-15T06:17:24.143Z,1005.9
2022-12-15T06:18:24.251Z,1005.9
2022-12-15T06:19:24.636Z,1005.9
2022-12-15T06:21:24.134Z,1005.8
2022-12-15T06:22:24.137Z,1005.9
2022-12-15T06:23:24.250Z,1005.8
2022-12-15T06:24:24.812Z,1005.9
2022-12-15T06:26:23.014Z,1005.8
2022-12-15T06:27:24.138Z,1005.8
2022-12-15T06:30:24.822Z,1005.8
2022-12-15T06:31:25.590Z,1005.8
2022-12-15T06:32:24.162Z,1005.7
2022-12-15T06:33:24.808Z,1005.7
2022-12-15T06:34:24.141Z,1005.8
2022-12-15T06:35:24.528Z,1005.8
2022-12-15T06:36:24.144Z,1005.8
2022-12-15T06:38:24.360Z,1005.9
2022-12-15T06:39:24.169Z,1005.9
2022-12-15T06:40:24.894Z,1005.8
2022-12-15T06:41:24.845Z,1005.8
2022-12-15T06:42:24.142Z,1005.8
2022-12-15T06:43:24.144Z,1005.8
2022-12-15T06:44:24.926Z,1005.8
2022-12-15T06:45:24.763Z,1005.8
2022-12-15T06:46:24.208Z,1005.8
2022-12-15T06:47:24.287Z,1005.8
2022-12-15T06:48:24.879Z,1005.8
2022-12-15T06:51:24.137Z,1005.8
2022-12-15T06:52:24.152Z,1005.8
2022-12-15T06:53:24.765Z,1005.8
2022-12-15T06:54:24.141Z,1005.8
2022-12-15T06:55:24.140Z,1005.8
2022-12-15T06:56:30.728Z,1005.8
2022-12-15T06:59:24.156Z,1005.8
2022-12-15T07:00:23.041Z,1005.8
2022-12-15T07:01:25.090Z,1005.8
2022-12-15T07:02:28.867Z,1005.8
2022-12-15T07:03:24.397Z,1005.8
2022-12-15T07:04:24.228Z,1005.8
2022-12-15T07:05:24.207Z,1005.8
2022-12-15T07:06:24.161Z,1005.8
2022-12-15T07:07:24.892Z,1005.8
2022-12-15T07:08:30.799Z,1005.9
2022-12-15T07:09:24.180Z,1005.8
2022-12-15T07:12:24.226Z,1006
2022-12-15T07:14:24.211Z,1006
2022-12-15T07:15:24.984Z,1006
2022-12-15T07:16:24.179Z,1005.9
2022-12-15T07:17:24.638Z,1006
2022-12-15T07:18:24.141Z,1005.9
2022-12-15T07:19:24.863Z,1005.9
2022-12-15T07:20:28.731Z,1005.9
2022-12-15T07:21:24.529Z,1006
2022-12-15T07:25:24.836Z,1006
2022-12-15T07:26:24.154Z,1006
2022-12-15T07:27:24.708Z,1006
2022-12-15T07:28:26.001Z,1006
2022-12-15T07:30:24.650Z,1006
2022-12-15T07:31:24.681Z,1006
2022-12-15T07:33:23.002Z,1006
2022-12-15T07:35:23.008Z,1006.1
2022-12-15T07:36:24.981Z,1006.1
2022-12-15T07:37:24.591Z,1006.1
2022-12-15T07:38:24.149Z,1006.1
2022-12-15T07:39:24.357Z,1006.1
2022-12-15T07:41:24.929Z,1006.2
2022-12-15T07:43:24.131Z,1006.2
2022-12-15T07:44:24.524Z,1006.3
2022-12-15T07:45:24.876Z,1006.3
2022-12-15T07:47:24.479Z,1006.3
2022-12-15T07:48:24.196Z,1006.2
2022-12-15T07:49:24.131Z,1006.3
2022-12-15T07:51:24.261Z,1006.3
2022-12-15T07:52:24.263Z,1006.3
2022-12-15T07:54:24.443Z,1006.3
2022-12-15T07:55:50.089Z,1006.4
2022-12-15T07:56:24.135Z,1006.4
2022-12-15T07:57:23.017Z,1006.3
2022-12-15T07:59:24.132Z,1006.3
2022-12-15T08:00:24.133Z,1006.3
2022-12-15T08:02:24.479Z,1006.3
2022-12-15T08:04:24.138Z,1006.4
2022-12-15T08:05:24.464Z,1006.4
2022-12-15T08:06:24.648Z,1006.4
2022-12-15T08:07:24.134Z,1006.4
2022-12-15T08:09:23.028Z,1006.4
2022-12-15T08:10:24.620Z,1006.4
2022-12-15T08:12:24.141Z,1006.4
2022-12-15T08:15:24.172Z,1006.4
2022-12-15T08:16:24.934Z,1006.4
2022-12-15T08:17:24.171Z,1006.5
2022-12-15T08:18:24.154Z,1006.4
2022-12-15T08:19:25.047Z,1006.5
2022-12-15T08:21:24.838Z,1006.5
2022-12-15T08:23:24.509Z,1006.5
2022-12-15T08:25:24.958Z,1006.5
2022-12-15T08:26:29.982Z,1006.5
2022-12-15T08:27:24.170Z,1006.4
2022-12-15T08:28:24.151Z,1006.4
2022-12-15T08:29:50.153Z,1006.4
2022-12-15T08:30:24.149Z,1006.4
2022-12-15T08:31:24.223Z,1006.3
2022-12-15T08:32:24.212Z,1006.3
2022-12-15T08:33:24.682Z,1006.3
2022-12-15T08:34:23.501Z,1006.4
2022-12-15T08:36:24.164Z,1006.4
2022-12-15T08:37:24.951Z,1006.4
2022-12-15T08:38:24.160Z,1006.4
2022-12-15T08:39:24.166Z,1006.4
2022-12-15T08:40:23.011Z,1006.4
2022-12-15T08:41:24.507Z,1006.5
2022-12-15T08:42:24.766Z,1006.4
2022-12-15T08:44:24.165Z,1006.4
2022-12-15T08:46:24.529Z,1006.4
2022-12-15T08:47:24.783Z,1006.4
2022-12-15T08:51:24.312Z,1006.4
2022-12-15T08:52:24.740Z,1006.4
2022-12-15T08:55:24.698Z,1006.5
2022-12-15T08:56:24.155Z,1006.4
2022-12-15T08:57:24.203Z,1006.5
2022-12-15T08:59:24.245Z,1006.4
2022-12-15T09:02:24.252Z,1006.5
2022-12-15T09:03:24.629Z,1006.5
2022-12-15T09:05:24.165Z,1006.5
2022-12-15T09:06:24.154Z,1006.5
2022-12-15T09:08:25.426Z,1006.5
2022-12-15T09:10:24.408Z,1006.5
2022-12-15T09:11:24.182Z,1006.5
2022-12-15T09:15:45.376Z,1006.6
2022-12-15T09:16:24.209Z,1006.6
2022-12-15T09:18:24.147Z,1006.6
2022-12-15T09:19:24.167Z,1006.6
2022-12-15T09:21:24.146Z,1006.6
2022-12-15T09:23:24.149Z,1006.6
2022-12-15T09:25:24.934Z,1006.6
2022-12-15T09:26:24.149Z,1006.6
2022-12-15T09:27:24.491Z,1006.7
2022-12-15T09:28:24.956Z,1006.7
2022-12-15T09:29:24.487Z,1006.6
2022-12-15T09:33:24.151Z,1006.7
2022-12-15T09:34:24.149Z,1006.7
2022-12-15T09:37:24.935Z,1006.9
2022-12-15T09:38:24.642Z,1006.9
2022-12-15T09:39:24.716Z,1006.9
2022-12-15T09:40:24.353Z,1006.9
2022-12-15T09:41:24.164Z,1006.9
2022-12-15T09:46:24.583Z,1007
2022-12-15T09:47:24.164Z,1007
2022-12-15T09:48:24.170Z,1007
2022-12-15T09:49:24.150Z,1007
2022-12-15T09:50:24.625Z,1007.1
2022-12-15T09:51:25.091Z,1007.1
2022-12-15T09:52:24.907Z,1007.1
2022-12-15T09:53:53.800Z,1007.1
2022-12-15T09:55:24.271Z,1007.1
2022-12-15T09:58:24.157Z,1007.1
2022-12-15T09:59:24.292Z,1007.1
2022-12-15T10:00:24.290Z,1007.2
2022-12-15T10:01:24.935Z,1007.2
2022-12-15T10:03:24.314Z,1007.2
2022-12-15T10:06:31.332Z,1007.2
2022-12-15T10:07:24.210Z,1007.2
2022-12-15T10:08:24.515Z,1007.2
2022-12-15T10:09:24.918Z,1007.2
2022-12-15T10:11:24.147Z,1007.2
2022-12-15T10:12:24.231Z,1007.2
2022-12-15T10:13:23.028Z,1007.1
2022-12-15T10:14:24.805Z,1007.2
2022-12-15T10:15:24.152Z,1007.2
2022-12-15T10:16:24.650Z,1007.2
2022-12-15T10:19:24.161Z,1007.2
2022-12-15T10:20:24.176Z,1007.3
2022-12-15T10:21:24.168Z,1007.3
2022-12-15T10:22:24.601Z,1007.2
2022-12-15T10:23:24.245Z,1007.3
2022-12-15T10:25:07.387Z,1007.3
2022-12-15T10:26:24.163Z,1007.3
2022-12-15T10:28:24.162Z,1007.3
2022-12-15T10:29:25.179Z,1007.3
2022-12-15T10:30:24.321Z,1007.3
2022-12-15T10:31:24.638Z,1007.3
2022-12-15T10:32:24.565Z,1007.3
2022-12-15T10:34:24.686Z,1007.3
2022-12-15T10:35:24.783Z,1007.3
2022-12-15T10:39:24.868Z,1007.3
2022-12-15T10:40:24.190Z,1007.3
2022-12-15T10:41:24.160Z,1007.3
2022-12-15T10:42:24.148Z,1007.3
2022-12-15T10:43:24.163Z,1007.3
2022-12-15T10:44:30.308Z,1007.3
2022-12-15T10:47:24.162Z,1007.3
2022-12-15T10:48:24.691Z,1007.3
2022-12-15T10:49:24.154Z,1007.2
2022-12-15T10:51:24.166Z,1007.2
2022-12-15T10:52:25.032Z,1007.2
2022-12-15T10:53:24.700Z,1007.2
2022-12-15T10:54:24.692Z,1007.2
2022-12-15T10:55:24.161Z,1007.2
2022-12-15T10:56:30.597Z,1007.2
2022-12-15T11:00:24.170Z,1007.2
2022-12-15T11:01:24.417Z,1007.3
2022-12-15T11:03:24.330Z,1007.2
2022-12-15T11:04:23.221Z,1007.2
2022-12-15T11:05:24.170Z,1007.2
2022-12-15T11:06:24.459Z,1007.2
2022-12-15T11:08:23.071Z,1007.2
2022-12-15T11:09:24.153Z,1007.2
2022-12-15T11:10:24.969Z,1007.2
2022-12-15T11:13:27.344Z,1007.1
2022-12-15T11:14:24.826Z,1007.1
2022-12-15T11:15:24.179Z,1007
2022-12-15T11:16:24.953Z,1007
2022-12-15T11:17:25.042Z,1007
2022-12-15T11:18:24.164Z,1007
2022-12-15T11:20:24.665Z,1007.1
2022-12-15T11:21:24.157Z,1007.1
2022-12-15T11:22:24.720Z,1007.1
2022-12-15T11:23:25.031Z,1007.1
2022-12-15T11:24:24.959Z,1007.1
2022-12-15T11:26:24.810Z,1007.1
2022-12-15T11:27:24.205Z,1007
2022-12-15T11:28:24.532Z,1007.1
2022-12-15T11:29:24.266Z,1007
2022-12-15T11:31:24.182Z,1007
2022-12-15T11:32:24.193Z,1007
2022-12-15T11:33:24.210Z,1007
2022-12-15T11:34:25.011Z,1007
2022-12-15T11:35:24.191Z,1006.9
2022-12-15T11:36:24.337Z,1007
2022-12-15T11:39:25.104Z,1007
2022-12-15T11:40:24.185Z,1007.1
2022-12-15T11:41:24.588Z,1007
2022-12-15T11:43:24.577Z,1007
2022-12-15T11:45:23.055Z,1007
2022-12-15T11:47:23.051Z,1007
2022-12-15T11:48:24.946Z,1007.1
2022-12-15T11:49:24.165Z,1007
2022-12-15T11:52:24.716Z,1007
2022-12-15T11:53:24.185Z,1007
2022-12-15T11:54:24.167Z,1007
2022-12-15T11:55:31.111Z,1006.9
2022-12-15T11:56:23.041Z,1006.9
2022-12-15T11:57:25.225Z,1006.9
2022-12-15T11:58:24.233Z,1006.8
2022-12-15T12:00:24.198Z,1006.8
2022-12-15T12:01:24.776Z,1006.8
2022-12-15T12:02:24.292Z,1006.8
2022-12-15T12:04:24.744Z,1006.7
2022-12-15T12:05:24.531Z,1006.7
2022-12-15T12:06:24.176Z,1006.7
2022-12-15T12:08:24.794Z,1006.7
2022-12-15T12:09:24.159Z,1006.6
2022-12-15T12:10:24.203Z,1006.6
2022-12-15T12:13:24.601Z,1006.6
2022-12-15T12:14:24.182Z,1006.6
2022-12-15T12:16:24.684Z,1006.6
2022-12-15T12:17:23.069Z,1006.7
2022-12-15T12:19:24.314Z,1006.6
2022-12-15T12:21:24.951Z,1006.7
2022-12-15T12:22:24.863Z,1006.7
2022-12-15T12:23:24.173Z,1006.8
2022-12-15T12:24:24.482Z,1006.7
2022-12-15T12:25:25.081Z,1006.8
2022-12-15T12:26:24.192Z,1006.7
2022-12-15T12:27:24.925Z,1006.8
2022-12-15T12:29:24.611Z,1006.8
2022-12-15T12:30:24.321Z,1006.7
2022-12-15T12:32:24.752Z,1006.8
2022-12-15T12:33:24.784Z,1006.8
2022-12-15T12:34:24.979Z,1006.8
2022-12-15T12:37:24.640Z,1006.8
2022-12-15T12:38:24.748Z,1006.8
2022-12-15T12:39:23.055Z,1006.8
2022-12-15T12:40:23.051Z,1006.7
2022-12-15T12:42:24.751Z,1006.7
2022-12-15T12:43:24.735Z,1006.7
2022-12-15T12:45:24.910Z,1006.6
2022-12-15T12:46:24.164Z,1006.6
2022-12-15T12:47:24.794Z,1006.7
2022-12-15T12:48:24.756Z,1006.6
2022-12-15T12:51:24.693Z,1006.6
2022-12-15T12:54:24.808Z,1006.5
2022-12-15T12:55:24.991Z,1006.5
2022-12-15T12:56:24.657Z,1006.5
2022-12-15T12:57:24.194Z,1006.5
2022-12-15T12:59:24.192Z,1006.5
2022-12-15T13:00:24.747Z,1006.5
2022-12-15T13:03:23.044Z,1006.6
2022-12-15T13:04:24.179Z,1006.6
2022-12-15T13:06:24.935Z,1006.5
2022-12-15T13:07:24.169Z,1006.6
2022-12-15T13:08:24.753Z,1006.5
2022-12-15T13:09:24.196Z,1006.5
2022-12-15T13:11:24.320Z,1006.5
2022-12-15T13:12:50.489Z,1006.5
2022-12-15T13:13:24.887Z,1006.4
2022-12-15T13:16:23.071Z,1006.4
2022-12-15T13:17:26.936Z,1006.4
2022-12-15T13:18:24.167Z,1006.3
2022-12-15T13:19:24.233Z,1006.3
2022-12-15T13:20:24.180Z,1006.3
2022-12-15T13:21:24.651Z,1006.3
2022-12-15T13:24:23.089Z,1006.2
2022-12-15T13:25:24.195Z,1006.2
2022-12-15T13:26:24.178Z,1006.2
2022-12-15T13:29:24.748Z,1006.1
2022-12-15T13:30:24.307Z,1006.1
2022-12-15T13:33:24.199Z,1006
2022-12-15T13:34:23.067Z,1005.9
2022-12-15T13:35:24.785Z,1005.9
2022-12-15T13:36:24.576Z,1005.9
2022-12-15T13:37:25.252Z,1006
2022-12-15T13:39:24.196Z,1006
2022-12-15T13:40:24.248Z,1005.9
2022-12-15T13:42:34.305Z,1005.9
2022-12-15T13:43:24.758Z,1005.9
2022-12-15T13:46:24.932Z,1005.9
2022-12-15T13:47:24.175Z,1005.9
2022-12-15T13:49:23.127Z,1005.9
2022-12-15T13:55:28.138Z,1005.9
2022-12-15T13:56:24.196Z,1006
2022-12-15T13:59:24.181Z,1005.9
2022-12-15T14:00:24.185Z,1005.9
2022-12-15T14:01:28.664Z,1005.9
2022-12-15T14:03:24.309Z,1005.9
2022-12-15T14:04:24.205Z,1005.8
2022-12-15T14:05:24.190Z,1005.9
2022-12-15T14:07:24.850Z,1005.9
2022-12-15T14:08:24.204Z,1005.9
2022-12-15T14:09:24.197Z,1005.9
2022-12-15T14:11:51.159Z,1005.8
2022-12-15T14:12:24.185Z,1005.8
2022-12-15T14:13:25.099Z,1005.8
2022-12-15T14:15:24.181Z,1005.8
2022-12-15T14:16:24.225Z,1005.8
2022-12-15T14:17:24.221Z,1005.8
2022-12-15T14:21:24.195Z,1005.8
2022-12-15T14:22:28.562Z,1005.9
2022-12-15T14:23:24.183Z,1005.9
2022-12-15T14:25:24.934Z,1005.9
2022-12-15T14:26:24.398Z,1005.9
2022-12-15T14:28:24.208Z,1005.9
2022-12-15T14:29:24.199Z,1005.9
2022-12-15T14:30:24.180Z,1005.9
2022-12-15T14:33:28.194Z,1005.9
2022-12-15T14:34:24.694Z,1005.9
2022-12-15T14:35:24.191Z,1005.9
2022-12-15T14:37:24.187Z,1005.8
2022-12-15T14:39:24.187Z,1005.7
2022-12-15T14:41:24.182Z,1005.6
2022-12-15T14:42:24.796Z,1005.7
2022-12-15T14:43:24.206Z,1005.7
2022-12-15T14:45:24.255Z,1005.7
2022-12-15T14:47:24.206Z,1005.7
2022-12-15T14:48:40.895Z,1005.7
2022-12-15T14:49:24.735Z,1005.7
2022-12-15T14:50:25.311Z,1005.6
2022-12-15T14:51:24.214Z,1005.6
2022-12-15T14:53:24.460Z,1005.7
2022-12-15T14:54:24.193Z,1005.7
2022-12-15T14:55:24.285Z,1005.7
2022-12-15T14:56:30.035Z,1005.7
2022-12-15T14:57:24.200Z,1005.6
2022-12-15T14:58:24.194Z,1005.6
2022-12-15T15:00:24.179Z,1005.6
2022-12-15T15:01:24.718Z,1005.6
2022-12-15T15:02:24.303Z,1005.6
2022-12-15T15:03:09.281Z,1006.8
2022-12-15T15:04:23.083Z,1005.6
2022-12-15T15:06:24.186Z,1005.6
2022-12-15T15:08:24.881Z,1005.6
2022-12-15T15:09:24.831Z,1005.6
2022-12-15T15:10:24.217Z,1005.6
2022-12-15T15:11:24.202Z,1005.6
2022-12-15T15:12:24.889Z,1005.6
2022-12-15T15:16:23.202Z,1005.5
2022-12-15T15:17:23.090Z,1005.5
2022-12-15T15:18:24.199Z,1005.5
2022-12-15T15:19:24.293Z,1005.4
2022-12-15T15:21:24.200Z,1005.5
2022-12-15T15:23:24.638Z,1005.5
2022-12-15T15:24:24.831Z,1005.5
2022-12-15T15:25:24.202Z,1005.5
2022-12-15T15:26:24.187Z,1005.4
2022-12-15T15:27:24.310Z,1005.5
2022-12-15T15:29:24.189Z,1005.5
2022-12-15T15:30:24.185Z,1005.5
2022-12-15T15:31:24.507Z,1005.5
2022-12-15T15:32:24.180Z,1005.5
2022-12-15T15:33:25.085Z,1005.5
2022-12-15T15:36:24.633Z,1005.5
2022-12-15T15:37:24.190Z,1005.6
2022-12-15T15:38:24.186Z,1005.6
2022-12-15T15:40:25.054Z,1005.6
2022-12-15T15:41:24.192Z,1005.7
2022-12-15T15:42:29.270Z,1005.6
2022-12-15T15:43:24.196Z,1005.7
2022-12-15T15:44:24.695Z,1005.6
2022-12-15T15:45:24.211Z,1005.7
2022-12-15T15:46:24.797Z,1005.7
2022-12-15T15:49:23.069Z,1005.7
2022-12-15T15:50:24.474Z,1005.7
2022-12-15T15:51:24.388Z,1005.7
2022-12-15T15:52:24.220Z,1005.7
2022-12-15T15:53:24.322Z,1005.7
2022-12-15T15:54:24.197Z,1005.8
2022-12-15T15:56:24.723Z,1005.7
2022-12-15T15:58:31.904Z,1005.8
2022-12-15T16:01:24.939Z,1005.8
2022-12-15T16:02:24.504Z,1005.8
2022-12-15T16:03:24.482Z,1005.8
2022-12-15T16:04:23.068Z,1005.9
2022-12-15T16:05:24.205Z,1005.8
2022-12-15T16:06:24.792Z,1005.9
2022-12-15T16:07:24.206Z,1005.9
2022-12-15T16:11:24.382Z,1006
2022-12-15T16:12:24.201Z,1006
2022-12-15T16:13:26.548Z,1006
2022-12-15T16:14:24.789Z,1006.1
2022-12-15T16:17:24.197Z,1006.1
2022-12-15T16:18:24.632Z,1006.1
2022-12-15T16:19:24.198Z,1006.1
2022-12-15T16:20:24.933Z,1006.1
2022-12-15T16:22:24.205Z,1006.1
2022-12-15T16:24:24.734Z,1006.1
2022-12-15T16:25:24.427Z,1006.1
2022-12-15T16:26:24.670Z,1006.1
2022-12-15T16:27:24.808Z,1006
2022-12-15T16:28:24.502Z,1006.1
2022-12-15T16:30:24.568Z,1006.1
2022-12-15T16:31:24.282Z,1006.1
2022-12-15T16:33:24.838Z,1006.1
2022-12-15T16:34:24.726Z,1006.1
2022-12-15T16:35:24.195Z,1006.1
2022-12-15T16:38:24.384Z,1006.1
2022-12-15T16:40:23.089Z,1006.1
2022-12-15T16:41:23.105Z,1006.2
2022-12-15T16:43:24.364Z,1006.2
2022-12-15T16:44:27.657Z,1006.2
2022-12-15T16:45:24.773Z,1006.2
2022-12-15T16:46:24.318Z,1006.2
2022-12-15T16:47:24.575Z,1006.2
2022-12-15T16:49:24.228Z,1006.2
2022-12-15T16:50:24.898Z,1006.2
2022-12-15T16:51:24.196Z,1006.3
2022-12-15T16:52:23.073Z,1006.3
2022-12-15T16:54:24.743Z,1006.3
2022-12-15T16:56:24.496Z,1006.3
2022-12-15T16:57:24.212Z,1006.3
2022-12-15T16:58:24.217Z,1006.3
2022-12-15T16:59:33.215Z,1006.3
2022-12-15T17:00:24.216Z,1006.3
2022-12-15T17:02:26.474Z,1006.4
2022-12-15T17:04:24.851Z,1006.4
2022-12-15T17:05:24.678Z,1006.4
2022-12-15T17:06:24.211Z,1006.4
2022-12-15T17:07:24.229Z,1006.5
2022-12-15T17:08:25.049Z,1006.5
2022-12-15T17:10:24.620Z,1006.5
2022-12-15T17:11:24.516Z,1006.5
2022-12-15T17:12:24.987Z,1006.4
2022-12-15T17:13:27.479Z,1006.4
2022-12-15T17:15:24.639Z,1006.4
2022-12-15T17:17:24.681Z,1006.5
2022-12-15T17:18:24.211Z,1006.5
2022-12-15T17:19:24.699Z,1006.4
2022-12-15T17:20:29.469Z,1006.5
2022-12-15T17:21:24.405Z,1006.5
2022-12-15T17:24:23.110Z,1006.5
2022-12-15T17:25:53.413Z,1006.5
2022-12-15T17:27:24.211Z,1006.5
2022-12-15T17:28:24.212Z,1006.5
2022-12-15T17:29:24.722Z,1006.5
2022-12-15T17:30:24.743Z,1006.6
2022-12-15T17:31:24.259Z,1006.6